Terminal Aerodrome Forecast
Issued by NWS

Home | Current Version | Previous Version | Text Only | Print | Product List | Glossary On
Versions: 1 2 3 4 5 6 7 8 9 10 11 12 13 14
000
FTUS42 KMLB 251732
TAFISM
TAF
KISM 251732Z 2518/2618 12010KT P6SM FEW040 SCT050 SCT250
     FM260000 09006KT P6SM SCT040 BKN250
     FM260900 11003KT 5SM BR SCT050
     FM261500 11008KT P6SM SCT060=

USA.gov is the U.S. government's official web portal to all federal, state and local government web resources and services.